עמוד ראשי
METAR-TAF:

METAR-TAF

שדות תעופה :

Destin-Fort Walton Beach Airport

Destin, פלורידה, ארצות הברית

קו רוחב: 30-23-36N, קו אורך: 086-28-03W, גובה: 6מטר

תצפית מזג אוויר נוכחית

הדו"ח נערך לפני 1 שעות ו 20דקות, בשעה 18:53 UTC
רוח 13קשר מכיוון מזרח/דרום-מזרח עם משבים עד 22קשר
טמפרטורת 27 צלסיוס
לחות 74%
לחץ 1017 hPa
ראות: 8.0קילומטר
גשם קל,

METAR: KDTS 171853Z 12013G22KT 5SM -RA FEW026BNK080OVC100 27/22 A3002

זמן: 15:13 (20:13 UTC)


TAF: חסר

תצפיות ותחזיות מזג אוויר לגבי יותר מ- 4,000 שדות תעופה ברחבי העולם. דוחות METAR ו- TAF.

התחנות הזמינות מסומנות בנקודות צהובות ואדומות על גבי המפה.

העבר את העכבר לנקודה הצבעונית על מנת לראות את שם התחנה.

לאחר מכן, לחץ כדי לראות את תוכן ואת תחזיות מזג האוויר.

כדי לשנות את המפה: לחץ על הכפתורים הירוקים עם הפלוס השחור כדי להתקרב; על הכפתור הירוק עם המקף כדי להתרחק; או בחיצים הירוקים למפות סמוכות.


METAR-TAF: